Time;durP1;ratioP1;P1;durP2;ratioP2;P2;SDS_P1;SDS_P2;PMS_P1;PMS_P2;Temp;Humidity;BMP_temperature;BMP_pressure;BME280_temperature;BME280_humidity;BME280_pressure;Samples;Min_cycle;Max_cycle;Signal;HPM_P1;HPM_P2
2022/06/29 00:01:52;;;;;;;3.53;1.90;;;17.80;99.90;;;;;;5019496;28;20090;-83
2022/06/29 00:04:18;;;;;;;2.83;1.77;;;17.70;99.90;;;;;;5018618;28;20150;-83
2022/06/29 00:06:44;;;;;;;2.35;2.13;;;17.60;99.90;;;;;;5018757;28;20033;-84
2022/06/29 00:09:10;;;;;;;6.28;2.20;;;17.70;99.90;;;;;;5019314;28;20478;-83
2022/06/29 00:11:36;;;;;;;1.48;1.38;;;17.60;99.90;;;;;;5019875;28;20436;-83
2022/06/29 00:14:01;;;;;;;2.33;2.00;;;17.60;99.90;;;;;;5019097;28;20196;-83
2022/06/29 00:16:27;;;;;;;2.60;1.60;;;17.50;99.90;;;;;;5022410;28;20073;-83
2022/06/29 00:18:52;;;;;;;2.47;1.80;;;17.50;99.90;;;;;;5023352;28;20045;-83
2022/06/29 00:21:18;;;;;;;1.73;1.60;;;17.50;99.90;;;;;;5022700;28;20042;-83
2022/06/29 00:23:45;;;;;;;1.13;1.02;;;17.50;99.90;;;;;;5023156;28;20411;-84
2022/06/29 00:26:10;;;;;;;3.67;2.08;;;17.50;99.90;;;;;;5023082;28;20425;-83
2022/06/29 00:28:36;;;;;;;1.50;1.40;;;17.60;99.90;;;;;;5023383;28;20112;-83
2022/06/29 00:31:02;;;;;;;3.10;2.42;;;17.50;99.90;;;;;;5023611;28;20048;-83
2022/06/29 00:33:27;;;;;;;2.88;1.95;;;17.50;99.90;;;;;;5023501;28;20128;-83
2022/06/29 00:35:53;;;;;;;4.00;1.80;;;17.60;99.90;;;;;;5021667;28;20073;-83
2022/06/29 00:38:18;;;;;;;2.20;1.88;;;17.50;99.90;;;;;;5021526;28;20716;-83
2022/06/29 00:40:44;;;;;;;11.57;2.17;;;17.50;99.90;;;;;;5023026;28;20656;-84
2022/06/29 00:43:10;;;;;;;1.63;1.52;;;17.50;99.90;;;;;;5023518;28;20038;-84
2022/06/29 00:45:36;;;;;;;2.10;1.88;;;17.50;99.90;;;;;;5021995;28;20395;-83
2022/06/29 00:48:01;;;;;;;1.75;1.60;;;17.50;99.90;;;;;;5023272;28;20044;-83
2022/06/29 00:50:31;;;;;;;2.55;2.33;;;17.50;99.90;;;;;;5022713;28;20406;-83
2022/06/29 00:53:04;;;;;;;2.05;1.63;;;17.50;99.90;;;;;;5022037;28;20649;-83
2022/06/29 00:55:32;;;;;;;6.55;1.52;;;17.40;99.90;;;;;;5021653;28;20409;-83
2022/06/29 00:58:03;;;;;;;2.40;2.20;;;17.40;99.90;;;;;;5023009;28;20041;-84
2022/06/29 01:00:29;;;;;;;2.63;1.73;;;17.40;99.90;;;;;;5023303;28;20916;-83
2022/06/29 01:02:57;;;;;;;3.60;2.20;;;17.40;99.90;;;;;;5023402;28;20120;-83
2022/06/29 01:05:22;;;;;;;1.33;1.23;;;17.40;99.90;;;;;;5032122;22;20072;-84
2022/06/29 01:07:49;;;;;;;2.28;2.08;;;17.30;99.90;;;;;;5021759;28;20045;-84
2022/06/29 01:10:15;;;;;;;2.40;1.77;;;17.30;99.90;;;;;;5023994;28;20107;-84
2022/06/29 01:12:40;;;;;;;6.85;2.00;;;17.20;99.90;;;;;;5024530;28;20045;-84
2022/06/29 01:15:06;;;;;;;2.17;1.67;;;17.20;99.90;;;;;;5023485;28;20450;-84
2022/06/29 01:17:32;;;;;;;2.45;2.25;;;17.20;99.90;;;;;;5023916;28;20047;-84
2022/06/29 01:19:58;;;;;;;1.65;1.55;;;17.20;99.90;;;;;;5023280;28;20705;-84
2022/06/29 01:22:26;;;;;;;1.40;1.27;;;17.20;99.90;;;;;;5021870;28;20061;-83
2022/06/29 01:24:51;;;;;;;1.83;1.38;;;17.20;99.90;;;;;;5023430;28;20056;-84
2022/06/29 01:27:18;;;;;;;2.78;1.92;;;17.10;99.90;;;;;;5023805;28;20034;-84
2022/06/29 01:29:44;;;;;;;2.05;1.60;;;17.10;99.90;;;;;;5023060;28;20549;-84
2022/06/29 01:32:11;;;;;;;2.92;1.70;;;17.10;99.90;;;;;;5024126;28;20042;-84
2022/06/29 01:34:37;;;;;;;2.40;1.50;;;17.10;99.90;;;;;;5023334;28;20045;-84
2022/06/29 01:37:04;;;;;;;2.25;2.08;;;17.10;99.90;;;;;;5022561;28;20041;-83
2022/06/29 01:39:30;;;;;;;3.22;2.10;;;17.10;99.90;;;;;;5023865;28;20044;-83
2022/06/29 01:41:56;;;;;;;2.13;1.92;;;17.00;99.90;;;;;;5022975;28;20069;-83
2022/06/29 01:44:21;;;;;;;2.22;1.73;;;17.00;99.90;;;;;;5023506;28;20527;-85
2022/06/29 01:46:47;;;;;;;2.25;2.10;;;17.00;99.90;;;;;;5023029;28;20476;-84
2022/06/29 01:49:13;;;;;;;2.65;2.05;;;17.00;99.90;;;;;;5023124;28;20095;-83
2022/06/29 01:51:39;;;;;;;2.47;2.25;;;16.90;99.90;;;;;;5023132;28;20033;-84
2022/06/29 01:54:04;;;;;;;2.63;2.42;;;16.90;99.90;;;;;;5023006;28;20064;-83
2022/06/29 01:56:30;;;;;;;2.15;1.80;;;16.90;99.90;;;;;;5022762;28;20373;-83
2022/06/29 01:58:55;;;;;;;2.85;2.58;;;16.90;99.90;;;;;;5023077;28;20042;-83
2022/06/29 02:01:21;;;;;;;2.00;1.90;;;16.80;99.90;;;;;;5023173;28;20041;-83
2022/06/29 02:03:47;;;;;;;2.20;1.92;;;16.80;99.90;;;;;;5022520;28;20135;-84
2022/06/29 02:06:12;;;;;;;4.03;3.20;;;16.80;99.90;;;;;;5022169;28;20061;-84
2022/06/29 02:08:38;;;;;;;2.80;1.95;;;16.80;99.90;;;;;;5023322;28;20666;-83
2022/06/29 02:11:04;;;;;;;5.70;2.22;;;16.70;99.90;;;;;;5021192;28;20124;-84
2022/06/29 02:13:30;;;;;;;1.83;1.67;;;16.70;99.90;;;;;;5005323;28;20073;-84
2022/06/29 02:15:56;;;;;;;2.47;2.28;;;16.60;99.90;;;;;;5014429;28;20206;-84
2022/06/29 02:18:22;;;;;;;1.95;1.75;;;16.60;99.90;;;;;;5022674;28;20145;-83
2022/06/29 02:20:47;;;;;;;2.25;2.00;;;16.60;99.90;;;;;;5022234;28;20571;-84
2022/06/29 02:23:13;;;;;;;2.60;2.35;;;16.60;99.90;;;;;;5022492;28;20041;-84
2022/06/29 02:25:39;;;;;;;3.50;2.70;;;16.60;99.90;;;;;;5023008;28;20073;-83
2022/06/29 02:28:05;;;;;;;2.10;2.00;;;16.60;99.90;;;;;;5021004;28;20069;-84
2022/06/29 02:36:00;;;;;;;4.40;2.45;;;16.60;99.90;;;;;;5020768;28;20088;-84
2022/06/29 02:38:25;;;;;;;2.70;2.50;;;16.60;99.90;;;;;;5021958;28;20069;-84
2022/06/29 02:40:51;;;;;;;3.83;2.42;;;16.60;99.90;;;;;;5004069;28;20455;-84
2022/06/29 02:43:16;;;;;;;4.50;3.67;;;16.60;99.90;;;;;;5022325;28;20171;-84
2022/06/29 02:45:42;;;;;;;2.63;2.40;;;16.60;99.90;;;;;;5022729;28;20468;-84
2022/06/29 02:48:08;;;;;;;2.42;2.22;;;16.60;99.90;;;;;;5021684;28;20045;-84
2022/06/29 02:50:34;;;;;;;2.75;2.53;;;16.60;99.90;;;;;;5022599;28;20057;-84
2022/06/29 02:53:00;;;;;;;3.38;2.63;;;16.60;99.90;;;;;;5020583;28;20550;-84
2022/06/29 02:55:26;;;;;;;1.88;1.77;;;16.60;99.90;;;;;;5021760;28;20069;-83
2022/06/29 02:57:51;;;;;;;3.67;2.85;;;16.60;99.90;;;;;;5021660;28;20094;-83
2022/06/29 03:00:17;;;;;;;3.95;2.35;;;16.60;99.90;;;;;;5021954;28;20041;-84
2022/06/29 03:02:43;;;;;;;5.13;3.17;;;16.60;99.90;;;;;;5022211;28;20068;-84
2022/06/29 03:05:09;;;;;;;2.67;2.47;;;16.60;99.90;;;;;;5022125;28;20077;-84
2022/06/29 03:07:35;;;;;;;24.00;3.42;;;16.60;99.90;;;;;;5020624;28;20045;-86
2022/06/29 03:10:00;;;;;;;2.78;2.53;;;16.60;99.90;;;;;;5021335;28;20068;-84
2022/06/29 03:12:26;;;;;;;1.92;1.83;;;16.70;99.90;;;;;;5021500;28;20065;-83
2022/06/29 03:14:51;;;;;;;2.45;2.25;;;16.60;99.90;;;;;;5019790;28;20056;-84
2022/06/29 03:17:17;;;;;;;2.70;2.25;;;16.60;99.90;;;;;;5021779;28;20523;-84
2022/06/29 03:19:43;;;;;;;3.05;2.75;;;16.60;99.90;;;;;;5020891;28;20045;-84
2022/06/29 03:22:09;;;;;;;2.33;2.13;;;16.60;99.90;;;;;;5019470;28;20042;-84
2022/06/29 03:24:34;;;;;;;6.30;3.22;;;16.60;99.90;;;;;;5021579;28;20136;-84
2022/06/29 03:27:00;;;;;;;2.33;1.95;;;16.50;99.90;;;;;;5021238;28;20049;-82
2022/06/29 03:29:25;;;;;;;3.15;2.13;;;16.50;99.90;;;;;;5020334;28;20076;-83
2022/06/29 03:31:52;;;;;;;2.55;2.15;;;16.50;99.90;;;;;;5020997;28;20046;-83
2022/06/29 03:34:17;;;;;;;5.43;2.80;;;16.50;99.90;;;;;;5020970;28;20073;-84
2022/06/29 03:36:43;;;;;;;2.38;2.17;;;16.40;99.90;;;;;;5020915;28;20601;-84
2022/06/29 03:39:09;;;;;;;2.42;2.20;;;16.40;99.90;;;;;;5021547;28;20038;-83
2022/06/29 03:41:35;;;;;;;2.15;2.05;;;16.40;99.90;;;;;;5019434;28;20048;-84
2022/06/29 03:44:00;;;;;;;2.35;2.15;;;16.40;99.90;;;;;;5020893;28;20715;-83
2022/06/29 03:46:26;;;;;;;3.38;2.55;;;16.40;99.90;;;;;;5020887;28;20353;-84
2022/06/29 03:48:52;;;;;;;14.27;3.35;;;16.40;99.90;;;;;;5018041;28;20122;-84
2022/06/29 03:51:17;;;;;;;2.75;2.55;;;16.40;99.90;;;;;;5019250;28;20617;-84
2022/06/29 03:53:43;;;;;;;3.25;2.58;;;16.30;99.90;;;;;;5021030;28;20064;-84
2022/06/29 03:56:08;;;;;;;2.30;2.10;;;16.30;99.90;;;;;;5020980;28;20156;-84
2022/06/29 03:58:34;;;;;;;3.60;2.92;;;16.30;99.90;;;;;;5020719;28;20050;-83
2022/06/29 04:01:00;;;;;;;3.13;2.58;;;16.30;99.90;;;;;;5019315;28;20049;-84
2022/06/29 04:03:25;;;;;;;2.58;2.20;;;16.30;99.90;;;;;;5020765;28;20550;-84
2022/06/29 04:05:51;;;;;;;5.85;2.88;;;16.30;99.90;;;;;;5019408;28;20057;-84
2022/06/29 04:08:17;;;;;;;2.47;2.33;;;16.30;99.90;;;;;;5020523;28;20084;-84
2022/06/29 04:10:43;;;;;;;3.65;3.05;;;16.40;99.90;;;;;;5021096;28;20045;-84
2022/06/29 04:13:08;;;;;;;4.32;2.40;;;16.40;99.90;;;;;;5006244;28;20041;-84
2022/06/29 04:15:34;;;;;;;2.58;2.28;;;16.40;99.90;;;;;;5000783;28;20093;-84
2022/06/29 04:18:01;;;;;;;2.75;2.55;;;16.50;99.90;;;;;;5000825;28;20042;-84
2022/06/29 04:23:10;;;;;;;2.55;2.05;;;16.50;99.90;;;;;;5020748;28;20088;-84
2022/06/29 04:25:36;;;;;;;3.20;2.90;;;16.50;99.90;;;;;;5020593;28;20073;-84
2022/06/29 04:28:02;;;;;;;3.58;2.55;;;16.60;99.90;;;;;;5018520;28;20519;-84
2022/06/29 04:30:27;;;;;;;3.10;2.85;;;16.60;99.90;;;;;;5019348;28;20056;-84
2022/06/29 04:32:53;;;;;;;2.70;2.50;;;16.60;99.90;;;;;;5019297;28;20042;-84
2022/06/29 04:35:18;;;;;;;2.38;2.22;;;16.70;99.90;;;;;;5020395;28;20168;-84
2022/06/29 04:37:44;;;;;;;4.30;2.60;;;16.70;99.90;;;;;;5019418;28;20077;-83
2022/06/29 04:40:10;;;;;;;2.85;1.92;;;16.70;99.90;;;;;;5020844;28;20056;-83
2022/06/29 04:42:36;;;;;;;8.15;2.88;;;16.70;99.90;;;;;;5020263;28;20171;-83
2022/06/29 04:45:01;;;;;;;6.90;3.15;;;16.70;99.90;;;;;;5020383;28;20085;-83
2022/06/29 04:47:27;;;;;;;2.97;2.75;;;16.80;99.90;;;;;;5018647;28;20048;-84
2022/06/29 04:49:52;;;;;;;3.60;2.10;;;16.90;99.90;;;;;;5020199;28;20134;-84
2022/06/29 04:52:18;;;;;;;3.72;2.63;;;16.90;99.90;;;;;;5019632;28;20053;-84
2022/06/29 04:54:43;;;;;;;2.55;2.13;;;16.90;99.90;;;;;;5019732;28;20042;-82
2022/06/29 04:57:09;;;;;;;3.08;2.60;;;16.90;99.90;;;;;;5020807;28;20045;-84
2022/06/29 04:59:35;;;;;;;4.18;2.58;;;16.90;99.90;;;;;;5020685;28;20112;-83
2022/06/29 05:02:00;;;;;;;2.65;2.47;;;16.90;99.90;;;;;;5023198;28;20044;-83
2022/06/29 05:04:26;;;;;;;2.53;2.15;;;16.90;99.90;;;;;;5023336;28;20732;-83
2022/06/29 05:06:51;;;;;;;3.65;2.90;;;16.90;99.90;;;;;;5022783;28;20057;-83
2022/06/29 05:09:17;;;;;;;2.92;2.45;;;16.90;99.90;;;;;;5022508;28;20038;-83
2022/06/29 05:11:43;;;;;;;2.10;2.00;;;16.90;99.90;;;;;;5022053;28;20127;-82
2022/06/29 05:14:11;;;;;;;2.58;2.35;;;17.00;99.90;;;;;;5024238;28;20077;-83
2022/06/29 05:16:37;;;;;;;7.95;2.35;;;17.00;99.90;;;;;;5023145;28;20436;-85
2022/06/29 05:19:03;;;;;;;3.97;2.80;;;17.00;99.90;;;;;;5023037;28;20044;-86
2022/06/29 05:21:30;;;;;;;2.13;2.00;;;17.10;99.90;;;;;;5022393;28;20053;-88
2022/06/29 05:23:56;;;;;;;3.45;2.95;;;17.10;99.90;;;;;;5023030;28;20037;-87
2022/06/29 05:26:22;;;;;;;2.63;2.42;;;17.10;99.90;;;;;;5022335;28;20566;-86
2022/06/29 05:28:48;;;;;;;2.53;2.28;;;17.10;99.90;;;;;;5023362;28;20521;-86
2022/06/29 05:31:13;;;;;;;2.33;1.83;;;17.10;99.90;;;;;;5022599;28;20053;-87
2022/06/29 05:33:39;;;;;;;2.50;2.22;;;17.20;99.90;;;;;;5020589;28;20076;-87
2022/06/29 05:36:09;;;;;;;3.90;2.72;;;17.20;99.90;;;;;;5017247;28;20033;-86
2022/06/29 05:38:36;;;;;;;3.58;2.47;;;17.20;99.90;;;;;;5014901;28;20037;-90
2022/06/29 05:41:02;;;;;;;3.17;2.88;;;17.20;99.90;;;;;;5009435;28;20057;-89
2022/06/29 05:43:30;;;;;;;2.92;2.08;;;17.20;99.90;;;;;;5017344;28;20168;-85
2022/06/29 05:45:56;;;;;;;2.30;2.20;;;17.30;99.90;;;;;;5007825;28;20125;-86
2022/06/29 05:48:21;;;;;;;2.80;2.60;;;17.30;99.90;;;;;;5016813;28;20112;-90
2022/06/29 05:50:47;;;;;;;3.58;2.17;;;17.30;99.90;;;;;;5008958;28;20041;-91
2022/06/29 05:53:14;;;;;;;2.55;2.35;;;17.30;99.90;;;;;;5021468;28;20293;-90
2022/06/29 05:55:40;;;;;;;2.30;1.98;;;17.30;99.90;;;;;;5001596;28;20338;-88
2022/06/29 05:58:05;;;;;;;2.88;2.53;;;17.40;99.90;;;;;;5000777;28;20044;-89
2022/06/29 06:00:32;;;;;;;2.58;2.40;;;17.40;99.90;;;;;;5007141;28;20167;-94
2022/06/29 06:02:57;;;;;;;2.30;1.95;;;17.50;99.90;;;;;;5018266;28;20590;-91
2022/06/29 06:05:23;;;;;;;3.65;2.75;;;17.50;99.90;;;;;;5019743;28;20085;-89
2022/06/29 06:07:49;;;;;;;2.85;2.65;;;17.50;99.90;;;;;;5017057;28;20038;-91
2022/06/29 06:10:14;;;;;;;2.25;2.05;;;17.50;99.90;;;;;;5008892;28;20045;-90
2022/06/29 06:12:40;;;;;;;3.67;2.42;;;17.50;99.90;;;;;;5004242;28;20497;-91
2022/06/29 06:15:07;;;;;;;5.85;2.53;;;17.60;99.90;;;;;;5003893;28;20044;-91
2022/06/29 06:17:33;;;;;;;2.40;2.28;;;17.60;99.90;;;;;;5020833;28;20112;-90
2022/06/29 06:19:59;;;;;;;2.28;2.08;;;17.60;99.90;;;;;;5008752;28;20141;-89
2022/06/29 06:22:24;;;;;;;4.10;2.42;;;17.70;99.90;;;;;;5013752;28;20120;-85
2022/06/29 06:24:50;;;;;;;2.45;2.05;;;17.70;99.90;;;;;;5016609;28;20124;-86
2022/06/29 06:27:16;;;;;;;2.40;2.20;;;17.80;99.90;;;;;;5007278;28;20103;-85
2022/06/29 06:29:42;;;;;;;2.40;2.20;;;17.70;99.90;;;;;;5001060;28;20041;-84
2022/06/29 06:32:08;;;;;;;2.47;1.92;;;17.80;99.90;;;;;;5001143;28;20038;-83
2022/06/29 06:34:34;;;;;;;4.95;2.25;;;17.80;99.90;;;;;;5001392;28;20058;-84
2022/06/29 06:36:59;;;;;;;2.25;1.83;;;17.90;99.90;;;;;;5006208;28;20640;-84
2022/06/29 06:39:26;;;;;;;1.80;1.70;;;17.90;99.90;;;;;;5021019;28;20046;-85
2022/06/29 06:41:52;;;;;;;1.98;1.50;;;17.90;99.90;;;;;;5019291;28;20357;-87
2022/06/29 06:44:17;;;;;;;2.65;2.17;;;18.00;99.90;;;;;;5019416;28;20037;-87
2022/06/29 06:46:48;;;;;;;5.65;2.65;;;18.00;99.90;;;;;;5019603;28;20065;-87
2022/06/29 06:49:15;;;;;;;5.00;2.25;;;18.00;99.90;;;;;;5018194;28;20045;-85
2022/06/29 06:51:40;;;;;;;1.88;1.73;;;18.10;99.90;;;;;;5020619;28;20041;-85
2022/06/29 06:54:06;;;;;;;2.17;2.03;;;18.10;99.90;;;;;;5017072;28;20407;-86
2022/06/29 06:56:32;;;;;;;2.13;1.98;;;18.10;99.90;;;;;;5019268;28;20045;-87
2022/06/29 06:58:57;;;;;;;2.42;1.65;;;18.20;99.90;;;;;;5017332;28;20065;-87
2022/06/29 07:01:23;;;;;;;2.20;1.90;;;18.30;99.90;;;;;;5018505;28;20037;-87
2022/06/29 07:03:49;;;;;;;2.63;1.65;;;18.30;99.90;;;;;;5018160;28;20107;-86
2022/06/29 07:06:15;;;;;;;1.73;1.50;;;18.30;99.90;;;;;;5000699;28;20578;-86
2022/06/29 07:08:41;;;;;;;2.13;2.00;;;18.30;99.90;;;;;;5020735;28;20426;-87
2022/06/29 07:11:08;;;;;;;1.45;1.35;;;18.30;99.90;;;;;;5017514;28;20076;-88
2022/06/29 07:13:34;;;;;;;2.05;1.80;;;18.40;99.90;;;;;;5016916;28;20565;-87
2022/06/29 07:16:04;;;;;;;1.85;1.65;;;18.50;99.90;;;;;;5018268;28;20080;-88
2022/06/29 07:18:31;;;;;;;1.63;1.40;;;18.50;99.90;;;;;;5019834;28;20041;-88
2022/06/29 07:20:56;;;;;;;1.30;1.20;;;18.50;99.90;;;;;;5024187;28;20569;-87
2022/06/29 07:23:22;;;;;;;1.38;1.27;;;18.50;99.90;;;;;;5018944;28;20037;-88
2022/06/29 07:25:48;;;;;;;1.92;1.50;;;18.60;99.90;;;;;;5020327;28;20284;-88
2022/06/29 07:28:13;;;;;;;7.72;1.50;;;18.60;99.90;;;;;;5018248;28;20084;-86
2022/06/29 07:30:39;;;;;;;1.17;1.08;;;18.60;99.90;;;;;;5018229;28;20037;-88
2022/06/29 07:33:05;;;;;;;2.65;1.67;;;18.70;99.90;;;;;;5004618;28;20038;-85
2022/06/29 07:35:30;;;;;;;1.50;1.40;;;18.70;99.90;;;;;;4998768;28;20065;-86
2022/06/29 07:37:56;;;;;;;1.52;1.42;;;18.70;99.90;;;;;;4999061;28;20100;-85
2022/06/29 07:40:21;;;;;;;2.65;1.50;;;18.80;99.90;;;;;;4999068;28;20121;-86
2022/06/29 07:42:47;;;;;;;1.13;1.08;;;18.80;99.90;;;;;;4999687;28;20307;-86
2022/06/29 07:45:13;;;;;;;1.05;1.00;;;18.90;99.90;;;;;;5000246;28;20529;-86
2022/06/29 07:47:39;;;;;;;0.90;0.90;;;18.90;99.90;;;;;;4998694;28;20659;-85
2022/06/29 07:50:06;;;;;;;0.93;0.93;;;18.90;99.90;;;;;;4999110;28;20079;-85
2022/06/29 07:52:33;;;;;;;0.90;0.90;;;19.00;99.90;;;;;;5000169;28;20038;-86
2022/06/29 07:54:59;;;;;;;1.35;1.25;;;19.00;99.90;;;;;;4999641;28;20451;-85
2022/06/29 07:57:25;;;;;;;2.08;1.40;;;19.00;99.90;;;;;;4999979;28;20045;-85
2022/06/29 07:59:50;;;;;;;2.67;1.38;;;19.10;99.90;;;;;;4999196;28;20108;-86
2022/06/29 08:02:16;;;;;;;1.30;1.10;;;19.10;99.90;;;;;;4999942;28;20037;-86
2022/06/29 08:04:41;;;;;;;3.00;1.27;;;19.10;99.90;;;;;;4999774;28;20050;-86
2022/06/29 08:07:07;;;;;;;5.40;1.10;;;19.10;99.90;;;;;;4998526;28;20049;-85
2022/06/29 08:09:33;;;;;;;1.45;1.35;;;19.20;99.90;;;;;;4999383;28;20038;-85
2022/06/29 08:11:58;;;;;;;1.33;1.23;;;19.30;99.90;;;;;;5003014;28;20049;-86
2022/06/29 08:14:24;;;;;;;1.52;1.42;;;19.30;99.90;;;;;;5019005;28;20052;-85
2022/06/29 08:16:50;;;;;;;1.00;1.00;;;19.30;99.90;;;;;;5019022;28;20050;-85
2022/06/29 08:19:15;;;;;;;1.30;1.20;;;19.30;99.90;;;;;;5019304;28;20048;-86
2022/06/29 08:21:41;;;;;;;1.25;1.15;;;19.40;99.90;;;;;;5018867;28;20507;-82
2022/06/29 08:24:07;;;;;;;2.30;1.65;;;19.40;99.90;;;;;;5018960;28;20042;-86
2022/06/29 08:26:32;;;;;;;1.05;1.00;;;19.40;99.90;;;;;;5052494;28;20041;-86
2022/06/29 08:28:58;;;;;;;1.20;1.10;;;19.50;99.90;;;;;;5019847;28;20439;-85
2022/06/29 08:31:23;;;;;;;1.80;1.13;;;19.50;99.90;;;;;;5019435;28;20096;-85
2022/06/29 08:33:49;;;;;;;1.25;1.10;;;19.60;99.90;;;;;;5018418;28;20527;-85
2022/06/29 08:36:15;;;;;;;1.15;1.05;;;19.60;99.90;;;;;;5020675;28;20133;-85
2022/06/29 08:38:40;;;;;;;0.95;0.95;;;19.70;99.90;;;;;;5023766;28;20491;-85
2022/06/29 08:41:06;;;;;;;1.40;0.90;;;19.70;99.90;;;;;;5023725;28;20037;-85
2022/06/29 08:43:32;;;;;;;1.65;1.42;;;19.80;99.90;;;;;;5023441;28;20041;-86
2022/06/29 08:45:58;;;;;;;1.70;1.08;;;19.80;99.90;;;;;;5005317;28;20112;-86
2022/06/29 08:48:23;;;;;;;1.50;1.40;;;19.90;99.90;;;;;;5023749;28;20510;-85
2022/06/29 08:50:51;;;;;;;2.08;1.50;;;19.90;99.90;;;;;;5021991;28;20487;-85
2022/06/29 08:53:18;;;;;;;1.40;1.13;;;19.90;99.90;;;;;;5023969;28;20124;-85
2022/06/29 08:55:46;;;;;;;1.42;1.33;;;20.00;99.90;;;;;;5023222;28;20049;-84
2022/06/29 08:58:17;;;;;;;1.83;1.73;;;20.00;99.90;;;;;;5016654;28;20070;-84
2022/06/29 09:00:43;;;;;;;1.30;1.10;;;20.00;99.90;;;;;;5011616;28;20504;-84
2022/06/29 09:03:10;;;;;;;2.17;1.38;;;20.10;99.90;;;;;;5012603;28;20175;-86
2022/06/29 09:05:36;;;;;;;2.00;1.02;;;20.20;99.90;;;;;;5010364;28;20060;-85
2022/06/29 09:08:02;;;;;;;3.60;1.40;;;20.20;99.90;;;;;;5010617;28;20484;-86
2022/06/29 09:10:31;;;;;;;0.82;0.82;;;20.20;99.90;;;;;;5009898;28;20488;-85
2022/06/29 09:13:01;;;;;;;2.45;1.15;;;20.20;99.90;;;;;;5008240;28;20033;-85
2022/06/29 09:15:32;;;;;;;1.30;1.15;;;20.30;99.90;;;;;;5013444;28;20045;-86
2022/06/29 09:17:58;;;;;;;0.85;0.85;;;20.30;99.90;;;;;;5021638;28;20037;-85
2022/06/29 09:20:24;;;;;;;0.95;0.95;;;20.30;99.90;;;;;;5008036;28;20631;-85
2022/06/29 09:22:55;;;;;;;1.88;1.15;;;20.40;99.90;;;;;;5005886;28;20132;-87
2022/06/29 09:25:22;;;;;;;1.23;1.13;;;20.40;99.90;;;;;;5009432;28;20523;-86
2022/06/29 09:27:48;;;;;;;0.70;0.70;;;20.50;99.90;;;;;;5004057;28;20046;-85
2022/06/29 09:30:28;;;;;;;1.65;1.13;;;20.60;99.90;;;;;;5001774;28;20044;-85
2022/06/29 09:33:07;;;;;;;1.65;0.85;;;20.60;99.90;;;;;;5001576;28;20057;-85
2022/06/29 09:35:37;;;;;;;0.75;0.75;;;20.70;99.90;;;;;;5018060;28;20052;-85
2022/06/29 09:38:22;;;;;;;1.58;1.27;;;20.80;99.90;;;;;;5018571;28;20055;-85
2022/06/29 09:40:57;;;;;;;1.45;1.35;;;20.90;99.90;;;;;;5030589;28;20657;-84
2022/06/29 09:43:23;;;;;;;3.00;1.10;;;20.90;99.90;;;;;;5025326;28;20048;-85
2022/06/29 09:45:51;;;;;;;1.73;1.17;;;21.00;99.90;;;;;;5021688;28;20404;-85
2022/06/29 09:48:21;;;;;;;1.50;1.17;;;21.00;99.90;;;;;;5024123;28;20049;-85
2022/06/29 09:50:49;;;;;;;1.65;1.05;;;21.10;99.90;;;;;;5009425;28;20309;-85
2022/06/29 09:53:17;;;;;;;2.00;1.40;;;21.10;99.90;;;;;;5018038;28;20042;-85
2022/06/29 09:55:45;;;;;;;1.30;1.20;;;21.10;99.90;;;;;;5009538;28;20042;-86
2022/06/29 09:58:12;;;;;;;0.82;0.80;;;21.10;99.90;;;;;;5010133;28;20496;-86
2022/06/29 10:03:22;;;;;;;1.00;1.00;;;21.20;99.90;;;;;;5011728;28;20107;-85
2022/06/29 10:05:54;;;;;;;1.05;1.05;;;21.30;99.90;;;;;;5012991;28;20061;-86
2022/06/29 10:08:20;;;;;;;1.45;1.10;;;21.30;99.90;;;;;;5019543;28;20091;-87
2022/06/29 10:10:56;;;;;;;1.65;1.30;;;21.40;99.90;;;;;;5013991;28;20335;-87
2022/06/29 10:13:42;;;;;;;2.25;1.23;;;21.40;99.90;;;;;;5000785;28;20038;-87
2022/06/29 10:16:08;;;;;;;1.20;1.20;;;21.50;99.90;;;;;;5009757;28;20053;-87
2022/06/29 10:19:01;;;;;;;0.95;0.95;;;21.50;99.90;;;;;;5023096;28;20511;-88
2022/06/29 10:21:31;;;;;;;1.38;1.27;;;21.50;99.90;;;;;;5021766;28;20038;-88
2022/06/29 10:24:03;;;;;;;1.30;1.20;;;21.50;99.90;;;;;;5022054;28;20172;-89
2022/06/29 10:26:38;;;;;;;1.25;1.15;;;21.60;99.90;;;;;;5021878;28;20235;-86
2022/06/29 10:29:06;;;;;;;0.98;0.90;;;21.50;99.90;;;;;;5022249;28;20331;-86
2022/06/29 10:31:53;;;;;;;4.35;1.65;;;21.60;99.90;;;;;;5022276;28;20513;-85
2022/06/29 10:34:31;;;;;;;1.85;1.05;;;21.60;99.90;;;;;;5014789;28;20045;-86
2022/06/29 10:37:08;;;;;;;1.17;1.08;;;21.60;99.90;;;;;;5011781;28;20045;-86
2022/06/29 10:39:49;;;;;;;0.70;0.70;;;21.70;99.90;;;;;;5018696;28;20041;-88
2022/06/29 10:45:09;;;;;;;1.63;1.10;;;21.70;99.90;;;;;;5013446;28;20135;-88
2022/06/29 10:47:37;;;;;;;1.00;0.98;;;21.80;99.90;;;;;;5014708;28;20521;-90
2022/06/29 10:50:22;;;;;;;1.52;1.42;;;21.80;99.90;;;;;;5007865;28;20041;-88
2022/06/29 10:52:51;;;;;;;1.80;1.25;;;21.80;99.90;;;;;;5019092;28;20682;-86
2022/06/29 10:55:18;;;;;;;1.20;1.10;;;21.80;99.90;;;;;;5017991;28;20356;-82
2022/06/29 10:57:45;;;;;;;1.40;1.30;;;21.80;99.90;;;;;;5009846;28;20144;-82
2022/06/29 11:00:23;;;;;;;0.68;0.68;;;21.90;99.90;;;;;;5014068;28;20072;-82
2022/06/29 11:02:49;;;;;;;0.95;0.95;;;21.90;99.90;;;;;;5016885;28;20037;-83
2022/06/29 11:05:15;;;;;;;1.58;1.40;;;21.90;99.90;;;;;;5014399;28;20119;-83
2022/06/29 11:13:24;;;;;;;1.50;1.27;;;22.20;99.90;;;;;;5004756;28;20187;-83
2022/06/29 11:16:06;;;;;;;0.80;0.80;;;22.20;99.90;;;;;;4999700;28;20080;-90
2022/06/29 11:18:32;;;;;;;2.55;1.20;;;22.30;99.90;;;;;;5005301;28;21438;-84
2022/06/29 11:21:02;;;;;;;1.25;1.10;;;22.40;99.90;;;;;;5004527;28;20137;-86
2022/06/29 11:23:30;;;;;;;1.10;1.00;;;22.40;99.90;;;;;;5004342;28;20654;-84
2022/06/29 11:25:57;;;;;;;1.00;1.00;;;22.40;99.90;;;;;;5009572;28;20072;-84
2022/06/29 11:28:28;;;;;;;1.40;0.95;;;22.40;99.90;;;;;;5012913;28;20034;-84
2022/06/29 11:31:12;;;;;;;1.20;0.90;;;22.40;99.90;;;;;;5004086;28;20037;-89
2022/06/29 11:33:53;;;;;;;1.05;1.05;;;22.50;99.90;;;;;;5006839;28;20633;-89
2022/06/29 11:36:27;;;;;;;1.05;1.05;;;22.60;99.90;;;;;;5014755;28;20050;-94
2022/06/29 11:38:56;;;;;;;1.00;0.90;;;22.70;99.90;;;;;;5018939;28;20440;-93
2022/06/29 11:41:25;;;;;;;0.90;0.90;;;22.70;99.90;;;;;;4995321;28;20056;-92
2022/06/29 11:47:20;;;;;;;1.15;1.10;;;22.80;99.90;;;;;;5015204;28;20041;-88
2022/06/29 11:49:46;;;;;;;1.40;1.33;;;22.80;99.90;;;;;;4999935;28;20517;-87
2022/06/29 11:52:13;;;;;;;1.00;0.73;;;22.80;99.90;;;;;;4997278;28;20047;-89
2022/06/29 11:54:49;;;;;;;1.00;0.90;;;22.80;99.90;;;;;;4999188;28;20049;-88
2022/06/29 11:57:17;;;;;;;1.85;0.95;;;22.90;99.90;;;;;;5001082;28;20050;-88
2022/06/29 11:59:44;;;;;;;2.65;1.30;;;23.00;99.90;;;;;;4998183;28;20125;-89
2022/06/29 12:02:15;;;;;;;0.95;0.95;;;23.00;99.90;;;;;;5001040;28;20073;-89
2022/06/29 12:04:43;;;;;;;0.95;0.95;;;23.00;99.90;;;;;;5013323;28;20295;-88
2022/06/29 12:07:16;;;;;;;1.17;1.13;;;23.00;99.90;;;;;;5000452;28;20525;-87
2022/06/29 12:09:42;;;;;;;0.80;0.80;;;23.10;99.90;;;;;;5000832;28;20050;-88
2022/06/29 12:12:09;;;;;;;0.77;0.77;;;23.10;99.90;;;;;;4999400;28;20507;-87
2022/06/29 12:14:37;;;;;;;1.08;0.80;;;23.20;99.90;;;;;;4998440;28;20104;-88
2022/06/29 12:17:04;;;;;;;1.38;1.13;;;23.20;99.90;;;;;;4995932;28;21022;-89
2022/06/29 12:19:29;;;;;;;0.90;0.90;;;23.20;99.90;;;;;;4994679;28;20038;-88
2022/06/29 12:21:57;;;;;;;1.08;0.95;;;23.30;99.90;;;;;;4999334;28;20334;-88
2022/06/29 12:24:24;;;;;;;1.00;1.00;;;23.30;99.90;;;;;;4998024;28;20053;-88
2022/06/29 12:26:49;;;;;;;1.73;1.20;;;23.30;99.90;;;;;;4999053;28;20053;-88
2022/06/29 12:29:16;;;;;;;2.00;1.10;;;23.30;99.90;;;;;;5001264;28;20046;-88
2022/06/29 12:31:42;;;;;;;0.90;0.90;;;23.40;99.90;;;;;;4999916;28;20916;-88
2022/06/29 12:34:12;;;;;;;1.58;0.90;;;23.50;99.90;;;;;;4996419;28;20042;-88
2022/06/29 12:36:39;;;;;;;0.98;0.98;;;23.50;99.90;;;;;;4984114;28;20045;-89
2022/06/29 12:39:05;;;;;;;0.65;0.65;;;23.50;99.90;;;;;;4998775;28;20045;-88
2022/06/29 12:41:31;;;;;;;1.00;1.00;;;23.50;99.90;;;;;;4997878;28;20045;-89
2022/06/29 12:43:59;;;;;;;2.00;0.93;;;23.50;99.90;;;;;;4993937;28;20666;-89
2022/06/29 12:46:27;;;;;;;1.92;1.25;;;23.40;99.90;;;;;;4995298;28;20285;-89
2022/06/29 12:48:53;;;;;;;1.30;1.20;;;23.50;99.90;;;;;;5009400;28;20041;-89
2022/06/29 12:51:19;;;;;;;3.38;0.73;;;23.60;99.90;;;;;;5008160;28;20040;-89
2022/06/29 12:53:44;;;;;;;3.17;0.98;;;23.60;99.90;;;;;;5016578;28;20038;-88
2022/06/29 12:56:10;;;;;;;1.05;0.90;;;23.60;99.90;;;;;;5017652;28;20038;-90
2022/06/29 12:58:36;;;;;;;1.15;1.05;;;23.60;99.90;;;;;;5018815;28;20045;-91
2022/06/29 13:01:02;;;;;;;1.60;1.45;;;23.70;99.90;;;;;;5018574;28;20452;-89
2022/06/29 13:03:28;;;;;;;1.08;1.08;;;23.70;99.90;;;;;;5013439;28;20037;-91
2022/06/29 13:05:53;;;;;;;0.90;0.90;;;23.80;99.90;;;;;;5010368;28;20065;-91
2022/06/29 13:08:20;;;;;;;2.75;1.10;;;23.80;99.90;;;;;;5011233;28;20054;-91